Time;durP1;ratioP1;P1;durP2;ratioP2;P2;SDS_P1;SDS_P2;PMS_P1;PMS_P2;Temp;Humidity;BMP_temperature;BMP_pressure;BME280_temperature;BME280_humidity;BME280_pressure;Samples;Min_cycle;Max_cycle;Signal;HPM_P1;HPM_P2
2022/06/10 00:01:19;;;;;;;3.22;1.65;;;11.30;99.90;;;;;;5051725;28;20045;-76
2022/06/10 00:03:47;;;;;;;1.52;1.35;;;11.30;99.90;;;;;;5052153;28;20037;-76
2022/06/10 00:06:15;;;;;;;1.98;1.85;;;11.30;99.90;;;;;;5032879;28;20554;-75
2022/06/10 00:08:46;;;;;;;3.72;1.73;;;11.30;99.90;;;;;;5051702;28;20067;-76
2022/06/10 00:11:14;;;;;;;1.85;1.75;;;11.20;99.90;;;;;;5050521;28;20511;-75
2022/06/10 00:13:44;;;;;;;3.78;2.13;;;11.20;99.90;;;;;;5051364;28;20041;-76
2022/06/10 00:16:14;;;;;;;2.60;1.65;;;11.20;99.90;;;;;;5052052;28;20037;-75
2022/06/10 00:18:42;;;;;;;4.60;2.03;;;11.30;99.90;;;;;;5051555;28;20037;-75
2022/06/10 00:21:12;;;;;;;4.60;2.13;;;11.20;99.90;;;;;;5051064;28;20045;-75
2022/06/10 00:23:41;;;;;;;1.70;1.60;;;11.20;99.90;;;;;;5052001;28;20060;-77
2022/06/10 00:26:11;;;;;;;2.95;2.28;;;11.20;99.90;;;;;;5070558;28;20045;-75
2022/06/10 00:28:40;;;;;;;2.30;2.10;;;11.20;99.90;;;;;;5071453;28;20052;-76
2022/06/10 00:31:08;;;;;;;2.75;2.03;;;11.20;99.90;;;;;;5071382;28;20079;-75
2022/06/10 00:33:36;;;;;;;2.50;1.98;;;11.20;99.90;;;;;;5070876;28;20074;-76
2022/06/10 00:36:04;;;;;;;2.63;2.30;;;11.20;99.90;;;;;;5071422;28;20044;-75
2022/06/10 00:38:32;;;;;;;1.95;1.83;;;11.20;99.90;;;;;;5070470;28;20044;-76
2022/06/10 00:41:00;;;;;;;3.60;1.25;;;11.20;99.90;;;;;;5070309;28;20051;-76
2022/06/10 00:43:33;;;;;;;4.05;2.05;;;11.20;99.90;;;;;;5071618;28;20052;-75
2022/06/10 00:46:05;;;;;;;1.50;1.40;;;11.20;99.90;;;;;;5070777;28;20045;-75
2022/06/10 00:48:48;;;;;;;2.20;2.03;;;11.10;99.90;;;;;;5071061;28;20510;-76
2022/06/10 00:51:47;;;;;;;2.67;2.35;;;11.10;99.90;;;;;;5070041;28;20056;-75
2022/06/10 00:54:28;;;;;;;5.93;2.15;;;11.10;99.90;;;;;;5045166;28;20052;-76
2022/06/10 00:57:09;;;;;;;1.90;1.80;;;11.10;99.90;;;;;;5070163;28;20049;-75
2022/06/10 00:59:44;;;;;;;2.08;1.63;;;11.10;99.90;;;;;;5070910;28;20040;-77
2022/06/10 01:02:16;;;;;;;3.03;2.38;;;11.10;99.90;;;;;;5070758;28;20371;-76
2022/06/10 01:04:45;;;;;;;4.38;1.95;;;11.10;99.90;;;;;;5070697;28;20381;-76
2022/06/10 01:07:18;;;;;;;2.33;1.45;;;11.10;99.90;;;;;;5070133;28;20053;-76
2022/06/10 01:09:50;;;;;;;1.70;1.60;;;11.10;99.90;;;;;;5069634;28;20053;-76
2022/06/10 01:12:37;;;;;;;1.85;1.75;;;11.10;99.90;;;;;;5070934;28;20041;-76
2022/06/10 01:15:29;;;;;;;6.60;1.85;;;11.10;99.90;;;;;;5070087;28;20052;-75
2022/06/10 01:18:12;;;;;;;2.28;1.95;;;11.10;99.90;;;;;;5049961;28;20048;-75
2022/06/10 01:20:48;;;;;;;3.65;2.20;;;11.10;99.90;;;;;;5050464;28;20045;-76
2022/06/10 01:23:51;;;;;;;4.35;1.98;;;11.00;99.90;;;;;;5049762;28;20052;-76
2022/06/10 01:26:21;;;;;;;1.13;1.02;;;11.00;99.90;;;;;;5049712;28;20041;-76
2022/06/10 01:29:21;;;;;;;5.90;2.10;;;11.10;99.90;;;;;;5049965;28;20049;-75
2022/06/10 01:32:04;;;;;;;5.00;2.25;;;11.10;99.90;;;;;;5042199;28;20321;-77
2022/06/10 01:34:58;;;;;;;4.05;2.15;;;11.10;99.90;;;;;;5049999;28;20490;-75
2022/06/10 01:37:29;;;;;;;5.65;1.80;;;11.10;99.90;;;;;;5034239;28;20044;-75
2022/06/10 01:40:35;;;;;;;1.77;1.67;;;11.00;99.90;;;;;;5049603;28;20068;-75
2022/06/10 01:43:07;;;;;;;5.47;2.70;;;11.00;99.90;;;;;;5040956;28;20055;-75
2022/06/10 01:45:52;;;;;;;2.97;2.00;;;11.00;99.90;;;;;;5049942;28;20049;-75
2022/06/10 01:48:30;;;;;;;1.98;1.88;;;11.00;99.90;;;;;;5049874;28;20045;-75
2022/06/10 01:51:25;;;;;;;2.65;2.45;;;11.00;99.90;;;;;;5049625;28;20044;-76
2022/06/10 01:54:00;;;;;;;3.55;2.30;;;10.90;99.90;;;;;;5049763;28;20053;-75
2022/06/10 01:56:37;;;;;;;1.60;1.50;;;10.90;99.90;;;;;;5050292;28;20048;-81
2022/06/10 01:59:41;;;;;;;3.42;1.95;;;10.90;99.90;;;;;;5049681;28;20045;-79
2022/06/10 02:02:15;;;;;;;3.20;1.90;;;10.90;99.90;;;;;;5049673;28;20044;-81
2022/06/10 02:04:54;;;;;;;2.35;2.15;;;10.90;99.90;;;;;;5031716;28;20052;-74
2022/06/10 02:07:39;;;;;;;2.55;2.20;;;10.90;99.90;;;;;;5047158;28;20076;-75
2022/06/10 02:10:39;;;;;;;2.53;2.10;;;10.90;99.90;;;;;;5049161;28;20064;-74
2022/06/10 02:13:14;;;;;;;6.35;1.73;;;10.90;99.90;;;;;;5049603;28;20045;-75
2022/06/10 02:15:54;;;;;;;3.20;1.73;;;10.90;99.90;;;;;;5049921;28;20044;-75
2022/06/10 02:18:32;;;;;;;1.77;1.67;;;10.90;99.90;;;;;;5049193;28;20052;-75
2022/06/10 02:21:05;;;;;;;6.13;2.25;;;10.90;99.90;;;;;;5049511;28;20071;-76
2022/06/10 02:23:41;;;;;;;2.20;2.10;;;10.80;99.90;;;;;;5050127;28;20052;-76
2022/06/10 02:26:10;;;;;;;5.68;2.25;;;10.80;99.90;;;;;;5048647;28;20490;-75
2022/06/10 02:28:44;;;;;;;2.20;2.10;;;10.80;99.90;;;;;;5051687;28;20041;-75
2022/06/10 02:31:36;;;;;;;13.70;4.47;;;10.80;99.90;;;;;;5053162;28;20048;-75
2022/06/10 02:34:05;;;;;;;3.95;1.95;;;10.80;99.90;;;;;;5053491;28;20041;-75
2022/06/10 02:36:47;;;;;;;4.93;2.22;;;10.80;99.90;;;;;;5053552;28;20045;-75
2022/06/10 02:39:24;;;;;;;;;;;10.80;99.90;;;;;;5053208;28;20045;-75
2022/06/10 02:42:11;;;;;;;2.30;2.10;;;10.80;99.90;;;;;;5052781;28;19928;-75
2022/06/10 02:45:06;;;;;;;2.38;2.10;;;10.70;99.90;;;;;;5053717;28;20049;-74
2022/06/10 02:47:40;;;;;;;4.00;1.88;;;10.70;99.90;;;;;;5051437;28;20052;-76
2022/06/10 02:50:09;;;;;;;4.60;2.88;;;10.70;99.90;;;;;;5053110;28;20044;-75
2022/06/10 02:52:39;;;;;;;3.45;1.98;;;10.70;99.90;;;;;;5053821;28;20049;-75
2022/06/10 02:55:13;;;;;;;3.83;2.20;;;10.70;99.90;;;;;;5052599;28;20044;-75
2022/06/10 03:03:42;;;;;;;2.67;1.63;;;10.70;99.90;;;;;;5050559;28;20052;-75
2022/06/10 03:06:28;;;;;;;1.92;1.80;;;10.70;99.90;;;;;;5052637;28;20518;-75
2022/06/10 03:09:27;;;;;;;1.77;1.42;;;10.70;99.90;;;;;;5034845;28;20057;-75
2022/06/10 03:12:14;;;;;;;2.85;2.42;;;10.70;99.90;;;;;;5049924;28;20403;-75
2022/06/10 03:15:21;;;;;;;3.58;2.35;;;10.70;99.90;;;;;;5052599;28;20048;-76
2022/06/10 03:18:01;;;;;;;1.83;1.73;;;10.70;99.90;;;;;;5070026;28;20044;-75
2022/06/10 03:20:40;;;;;;;4.63;2.92;;;10.70;99.90;;;;;;5073042;28;20052;-75
2022/06/10 03:23:27;;;;;;;3.22;2.00;;;10.70;99.90;;;;;;5072448;28;20056;-77
2022/06/10 03:26:13;;;;;;;1.85;1.58;;;10.70;99.90;;;;;;5072049;28;20052;-75
2022/06/10 03:28:55;;;;;;;2.03;1.85;;;10.70;99.90;;;;;;5072365;28;20048;-75
2022/06/10 03:31:38;;;;;;;2.63;1.75;;;10.80;99.90;;;;;;5069866;28;20051;-75
2022/06/10 03:34:23;;;;;;;2.17;1.92;;;10.70;99.90;;;;;;5072143;28;20514;-75
2022/06/10 03:36:55;;;;;;;4.15;2.00;;;10.70;99.90;;;;;;5071878;28;20398;-75
2022/06/10 03:39:24;;;;;;;1.77;1.67;;;10.70;99.90;;;;;;5071652;28;20418;-75
2022/06/10 03:42:08;;;;;;;4.80;1.88;;;10.70;99.90;;;;;;5071683;28;20037;-76
2022/06/10 03:44:37;;;;;;;3.22;1.40;;;10.70;99.90;;;;;;5072816;28;20052;-75
2022/06/10 03:47:07;;;;;;;2.88;1.92;;;10.70;99.90;;;;;;5072152;28;20075;-75
2022/06/10 03:49:54;;;;;;;6.30;3.28;;;10.70;99.90;;;;;;5058906;28;20501;-75
2022/06/10 03:52:25;;;;;;;2.67;2.10;;;10.70;99.90;;;;;;5052620;28;20049;-76
2022/06/10 03:54:53;;;;;;;3.53;1.98;;;10.70;99.90;;;;;;5051255;28;20037;-76
2022/06/10 03:57:21;;;;;;;2.50;2.13;;;10.70;99.90;;;;;;5034122;28;20051;-76
2022/06/10 03:59:49;;;;;;;1.80;1.42;;;10.70;99.90;;;;;;5051728;28;20052;-76
2022/06/10 04:02:18;;;;;;;6.57;4.28;;;10.80;99.90;;;;;;5051953;28;20037;-75
2022/06/10 04:04:49;;;;;;;1.90;1.55;;;10.70;99.90;;;;;;5051464;28;20052;-75
2022/06/10 04:07:18;;;;;;;2.30;2.20;;;10.80;99.90;;;;;;5052102;28;20056;-75
2022/06/10 04:09:46;;;;;;;2.72;1.42;;;10.80;99.90;;;;;;5051127;28;20049;-76
2022/06/10 04:12:15;;;;;;;3.47;1.92;;;10.80;99.90;;;;;;5052253;28;20049;-77
2022/06/10 04:14:43;;;;;;;2.75;2.47;;;10.90;99.90;;;;;;5051475;28;20045;-76
2022/06/10 04:17:11;;;;;;;1.58;1.30;;;10.90;99.90;;;;;;5051558;28;20380;-76
2022/06/10 04:19:40;;;;;;;1.92;1.83;;;10.80;99.90;;;;;;5051525;28;20045;-76
2022/06/10 04:22:08;;;;;;;2.17;1.95;;;10.90;99.90;;;;;;5033639;28;20041;-76
2022/06/10 04:24:36;;;;;;;2.58;1.90;;;10.90;99.90;;;;;;5059719;28;20044;-77
2022/06/10 04:27:04;;;;;;;4.93;2.45;;;10.90;99.90;;;;;;5070829;28;20478;-77
2022/06/10 04:29:32;;;;;;;5.07;1.73;;;10.90;99.90;;;;;;5071233;28;20036;-76
2022/06/10 04:32:00;;;;;;;3.17;2.03;;;11.00;99.90;;;;;;5071863;28;20052;-75
2022/06/10 04:34:27;;;;;;;3.50;2.83;;;11.00;99.90;;;;;;5071203;28;20048;-76
2022/06/10 04:36:55;;;;;;;2.50;1.88;;;11.00;99.90;;;;;;5070883;28;20051;-76
2022/06/10 04:39:23;;;;;;;4.50;1.65;;;11.00;99.90;;;;;;5071078;28;20059;-76
2022/06/10 04:41:51;;;;;;;9.10;2.10;;;11.10;99.90;;;;;;5054763;23;20044;-75
2022/06/10 04:44:19;;;;;;;3.05;1.77;;;11.10;99.90;;;;;;5031804;28;20046;-76
2022/06/10 04:46:47;;;;;;;4.57;2.15;;;11.10;99.90;;;;;;5031189;28;20407;-75
2022/06/10 04:49:15;;;;;;;4.70;2.53;;;11.10;99.90;;;;;;5030831;28;20041;-76
2022/06/10 04:51:43;;;;;;;4.82;1.90;;;11.20;99.90;;;;;;5031023;28;20053;-77
2022/06/10 04:54:11;;;;;;;5.93;2.38;;;11.20;99.90;;;;;;5031019;28;20049;-75
2022/06/10 04:56:39;;;;;;;3.30;1.58;;;11.20;99.90;;;;;;5030757;28;20052;-76
2022/06/10 04:59:07;;;;;;;6.47;2.78;;;11.30;99.90;;;;;;5030500;28;20045;-76
2022/06/10 05:01:35;;;;;;;2.75;2.40;;;11.30;99.90;;;;;;5030773;28;20038;-76
2022/06/10 05:04:03;;;;;;;4.57;3.55;;;11.40;99.90;;;;;;5031110;28;20053;-76
2022/06/10 05:06:31;;;;;;;2.60;2.28;;;11.40;99.90;;;;;;5030282;28;20502;-75
2022/06/10 05:09:00;;;;;;;6.63;3.28;;;11.40;99.90;;;;;;5030045;28;20052;-76
2022/06/10 05:11:28;;;;;;;6.70;3.42;;;11.40;99.90;;;;;;5029242;28;20060;-75
2022/06/10 05:13:57;;;;;;;4.68;3.50;;;11.50;99.90;;;;;;5030569;28;20049;-76
2022/06/10 05:16:25;;;;;;;5.97;3.00;;;11.50;99.90;;;;;;5030763;28;20041;-75
2022/06/10 05:18:54;;;;;;;4.97;2.90;;;11.50;99.90;;;;;;5030209;28;20758;-75
2022/06/10 05:21:22;;;;;;;4.80;3.15;;;11.60;99.90;;;;;;5030320;28;20034;-76
2022/06/10 05:23:50;;;;;;;2.85;2.08;;;11.60;99.90;;;;;;5030774;28;20053;-76
2022/06/10 05:26:18;;;;;;;6.85;2.30;;;11.60;99.90;;;;;;5029694;28;20515;-76
2022/06/10 05:28:49;;;;;;;4.07;2.35;;;11.70;99.90;;;;;;5030232;28;20411;-75
2022/06/10 05:31:17;;;;;;;;;;;11.70;99.90;;;;;;5031231;28;20446;-76
2022/06/10 05:36:31;;;;;;;3.00;2.70;;;11.70;99.90;;;;;;5030524;28;20041;-76
2022/06/10 05:38:59;;;;;;;3.00;2.78;;;11.70;99.90;;;;;;5029972;28;20042;-75
2022/06/10 05:44:13;;;;;;;4.35;1.98;;;11.90;99.90;;;;;;5030726;28;20052;-76
2022/06/10 05:46:41;;;;;;;3.30;2.83;;;11.90;99.90;;;;;;5030427;28;20407;-76
2022/06/10 05:49:09;;;;;;;2.00;1.80;;;12.00;99.90;;;;;;5012089;28;20041;-75
2022/06/10 05:51:37;;;;;;;2.17;1.98;;;12.00;99.90;;;;;;5030167;28;20060;-75
2022/06/10 05:54:05;;;;;;;4.72;3.05;;;12.10;99.90;;;;;;5029999;28;20053;-77
2022/06/10 05:56:33;;;;;;;4.65;2.60;;;12.20;99.90;;;;;;5029898;28;20495;-76
2022/06/10 05:59:01;;;;;;;4.63;2.33;;;12.20;99.90;;;;;;5029900;28;20060;-76
2022/06/10 06:01:29;;;;;;;4.40;2.38;;;12.30;99.90;;;;;;5029822;28;20037;-75
2022/06/10 06:04:00;;;;;;;2.53;2.33;;;12.30;99.90;;;;;;5032945;28;20049;-75
2022/06/10 06:06:27;;;;;;;1.92;1.83;;;12.30;99.90;;;;;;5033840;28;20045;-76
2022/06/10 06:08:55;;;;;;;3.55;1.83;;;12.40;99.90;;;;;;5033241;28;20053;-76
2022/06/10 06:11:24;;;;;;;6.22;3.33;;;12.50;99.90;;;;;;5033434;28;20479;-76
2022/06/10 06:13:52;;;;;;;4.35;2.50;;;12.50;99.90;;;;;;5032848;28;20060;-75
2022/06/10 06:16:21;;;;;;;2.47;2.22;;;12.60;99.90;;;;;;5034350;28;20084;-76
2022/06/10 06:18:50;;;;;;;3.13;2.08;;;12.70;99.90;;;;;;5016089;28;20037;-76
2022/06/10 06:21:18;;;;;;;12.38;2.78;;;12.80;99.90;;;;;;5016130;28;20037;-81
2022/06/10 06:23:49;;;;;;;2.90;2.45;;;12.90;99.90;;;;;;5034164;28;20479;-79
2022/06/10 06:26:18;;;;;;;4.95;2.72;;;12.90;99.90;;;;;;5033310;28;20053;-78
2022/06/10 06:28:47;;;;;;;4.22;2.13;;;13.00;99.90;;;;;;5033160;28;20399;-79
2022/06/10 06:31:15;;;;;;;4.15;2.50;;;13.00;99.90;;;;;;5034278;28;20049;-80
2022/06/10 06:33:43;;;;;;;5.88;2.13;;;13.10;99.90;;;;;;5033537;28;20045;-79
2022/06/10 06:36:19;;;;;;;2.30;1.98;;;13.00;99.90;;;;;;5033827;28;20542;-81
2022/06/10 06:38:47;;;;;;;2.83;2.47;;;13.00;99.90;;;;;;5012193;28;20046;-82
2022/06/10 06:41:17;;;;;;;2.33;2.22;;;13.00;99.90;;;;;;5012900;28;20038;-80
2022/06/10 06:43:45;;;;;;;4.75;2.03;;;13.10;99.90;;;;;;5014510;28;20050;-79
2022/06/10 06:46:15;;;;;;;2.97;2.75;;;13.20;99.90;;;;;;5013689;28;20408;-81
2022/06/10 06:48:44;;;;;;;3.33;2.60;;;13.30;99.90;;;;;;5013920;28;20068;-80
2022/06/10 06:51:12;;;;;;;2.72;2.22;;;13.20;99.90;;;;;;5013138;28;20053;-79
2022/06/10 06:53:41;;;;;;;6.18;2.45;;;13.30;99.90;;;;;;5013659;28;20049;-81
2022/06/10 06:56:09;;;;;;;5.68;3.33;;;13.30;99.90;;;;;;4979471;28;20403;-79
2022/06/10 06:58:37;;;;;;;3.60;3.30;;;13.40;99.90;;;;;;5013231;28;20046;-79
2022/06/10 07:01:05;;;;;;;7.10;2.53;;;13.40;99.90;;;;;;5013203;28;20041;-80
2022/06/10 07:03:33;;;;;;;2.38;2.17;;;13.40;99.90;;;;;;5013885;28;20050;-79
2022/06/10 07:06:02;;;;;;;4.07;2.13;;;13.60;99.90;;;;;;5013143;28;20050;-79
2022/06/10 07:08:32;;;;;;;4.30;2.78;;;13.50;99.90;;;;;;5013159;28;20065;-79
2022/06/10 07:11:02;;;;;;;3.38;2.72;;;13.60;99.90;;;;;;5012286;28;20499;-80
2022/06/10 07:13:30;;;;;;;3.83;2.67;;;13.70;99.90;;;;;;5012720;28;20046;-80
2022/06/10 07:16:00;;;;;;;6.35;3.55;;;13.60;99.90;;;;;;5015800;28;20050;-79
2022/06/10 07:18:30;;;;;;;4.07;2.47;;;13.60;99.90;;;;;;5032586;28;20049;-80
2022/06/10 07:20:59;;;;;;;3.90;2.22;;;13.80;99.90;;;;;;5015081;28;20048;-80
2022/06/10 07:23:27;;;;;;;9.18;3.45;;;13.90;99.90;;;;;;5033168;28;20376;-80
2022/06/10 07:25:55;;;;;;;3.92;3.15;;;14.00;99.90;;;;;;5031641;28;20053;-80
2022/06/10 07:28:23;;;;;;;2.85;2.58;;;14.20;99.90;;;;;;5015348;28;20048;-80
2022/06/10 07:30:51;;;;;;;4.18;2.42;;;14.40;99.90;;;;;;5032298;28;20519;-80
2022/06/10 07:33:19;;;;;;;4.35;2.70;;;14.40;99.90;;;;;;5032396;28;20495;-81
2022/06/10 07:35:47;;;;;;;4.13;3.30;;;14.40;99.90;;;;;;5032800;28;20042;-79
2022/06/10 07:38:18;;;;;;;;;;;14.50;99.90;;;;;;5032744;28;20050;-80
2022/06/10 07:43:40;;;;;;;9.10;5.00;;;14.40;99.90;;;;;;5014990;28;20410;-80
2022/06/10 07:46:12;;;;;;;4.20;2.60;;;14.50;99.90;;;;;;5032544;28;20513;-80
2022/06/10 07:48:40;;;;;;;3.22;2.92;;;14.60;99.90;;;;;;5032481;28;20045;-79
2022/06/10 07:51:08;;;;;;;5.60;4.47;;;14.70;99.90;;;;;;5031656;28;20071;-80
2022/06/10 07:53:36;;;;;;;5.07;3.72;;;14.70;99.90;;;;;;5014483;28;20049;-80
2022/06/10 07:56:05;;;;;;;4.03;2.97;;;14.70;99.90;;;;;;5014345;28;20053;-80
2022/06/10 07:58:33;;;;;;;4.65;2.60;;;14.70;99.90;;;;;;5014361;28;20060;-81
2022/06/10 08:01:00;;;;;;;4.60;3.42;;;14.80;99.90;;;;;;5014152;28;20084;-81
2022/06/10 08:03:29;;;;;;;6.43;3.60;;;15.00;99.90;;;;;;5014738;28;20068;-80
2022/06/10 08:05:59;;;;;;;5.63;2.80;;;15.20;99.90;;;;;;4997933;28;20079;-80
2022/06/10 08:08:27;;;;;;;3.53;2.63;;;15.20;99.90;;;;;;5032209;28;20057;-81
2022/06/10 08:10:55;;;;;;;7.63;3.28;;;15.10;99.90;;;;;;4981094;28;20056;-80
2022/06/10 08:13:26;;;;;;;3.53;3.20;;;15.00;99.90;;;;;;5014384;28;20037;-81
2022/06/10 08:15:57;;;;;;;5.43;5.00;;;15.00;99.90;;;;;;5032347;28;20060;-80
2022/06/10 08:18:26;;;;;;;11.15;4.35;;;15.00;99.90;;;;;;4997444;28;20731;-80
2022/06/10 08:23:41;;;;;;;3.45;3.20;;;15.20;99.90;;;;;;5014527;28;20037;-80
2022/06/10 08:26:10;;;;;;;4.85;3.28;;;15.50;99.90;;;;;;5030569;28;20046;-81
2022/06/10 08:28:41;;;;;;;3.63;3.13;;;15.80;99.90;;;;;;5031692;28;20053;-81
2022/06/10 08:31:09;;;;;;;10.38;3.05;;;15.80;99.90;;;;;;5031605;28;20514;-81
2022/06/10 08:33:38;;;;;;;2.92;2.72;;;15.70;99.90;;;;;;5031339;28;20053;-80
2022/06/10 08:36:07;;;;;;;3.67;3.20;;;15.80;99.90;;;;;;5014105;28;20060;-82
2022/06/10 08:38:35;;;;;;;3.70;3.13;;;15.90;99.90;;;;;;4996759;28;20519;-82
2022/06/10 08:41:33;;;;;;;3.05;2.45;;;16.10;99.90;;;;;;5014025;28;20046;-80
2022/06/10 08:44:47;;;;;;;3.22;2.92;;;15.90;99.90;;;;;;5031877;28;20053;-80
2022/06/10 08:47:34;;;;;;;3.95;2.88;;;15.50;99.90;;;;;;4912010;29;20044;-81
2022/06/10 08:50:07;;;;;;;3.40;3.20;;;15.30;99.90;;;;;;5023649;28;20387;-80
2022/06/10 08:52:41;;;;;;;3.15;2.90;;;15.40;99.90;;;;;;5031859;28;20216;-81
2022/06/10 08:55:27;;;;;;;5.57;2.72;;;15.50;99.90;;;;;;5030840;28;20046;-82
2022/06/10 08:58:00;;;;;;;6.38;2.03;;;15.40;99.90;;;;;;5030606;28;20068;-82
2022/06/10 09:00:32;;;;;;;3.67;2.63;;;15.30;99.90;;;;;;5031499;28;20057;-82
2022/06/10 09:03:18;;;;;;;6.68;3.63;;;15.40;99.90;;;;;;5031091;28;20041;-82
2022/06/10 09:05:57;;;;;;;2.92;2.47;;;15.40;99.90;;;;;;5013198;28;20061;-82
2022/06/10 09:08:31;;;;;;;6.95;3.70;;;15.40;99.90;;;;;;5031090;28;20057;-81
2022/06/10 09:11:11;;;;;;;2.95;2.65;;;15.50;99.90;;;;;;5029810;28;20045;-81
2022/06/10 09:14:09;;;;;;;4.80;2.28;;;15.50;99.90;;;;;;5030603;28;20045;-82
2022/06/10 09:17:00;;;;;;;3.33;3.03;;;15.50;99.90;;;;;;4993583;28;20054;-81
2022/06/10 09:19:43;;;;;;;6.45;3.03;;;15.50;99.90;;;;;;4971955;28;20057;-82
2022/06/10 09:22:26;;;;;;;6.05;2.67;;;15.90;99.90;;;;;;5010870;28;20053;-81
2022/06/10 09:25:11;;;;;;;3.15;2.20;;;16.00;99.90;;;;;;5020135;28;20045;-82
2022/06/10 09:27:45;;;;;;;4.57;3.33;;;15.80;99.90;;;;;;5030458;28;20057;-82
2022/06/10 09:30:16;;;;;;;5.00;4.15;;;15.70;99.90;;;;;;5030308;28;20052;-82
2022/06/10 09:33:05;;;;;;;3.65;2.30;;;15.60;99.90;;;;;;4997134;28;20061;-82
2022/06/10 09:36:02;;;;;;;6.60;4.07;;;15.50;99.90;;;;;;5011370;28;20088;-82
2022/06/10 09:38:56;;;;;;;3.60;2.63;;;15.50;99.90;;;;;;5029195;28;20071;-81
2022/06/10 09:41:44;;;;;;;2.90;2.70;;;15.50;99.90;;;;;;5029029;28;20060;-82
2022/06/10 09:44:39;;;;;;;5.93;3.15;;;15.40;99.90;;;;;;5030724;28;20454;-82
2022/06/10 09:47:17;;;;;;;3.25;2.88;;;15.50;99.90;;;;;;5030004;28;20060;-81
2022/06/10 09:50:21;;;;;;;4.93;2.78;;;15.70;99.90;;;;;;5029394;28;20041;-81
2022/06/10 09:53:15;;;;;;;4.43;3.03;;;15.80;99.90;;;;;;5003281;28;20495;-80
2022/06/10 09:56:13;;;;;;;3.78;3.47;;;15.80;99.90;;;;;;5023500;28;20057;-81
2022/06/10 09:59:03;;;;;;;3.70;2.78;;;15.90;99.90;;;;;;5012213;28;20063;-81
2022/06/10 10:02:21;;;;;;;6.60;3.60;;;16.10;99.90;;;;;;5012351;28;20458;-80
2022/06/10 10:05:04;;;;;;;4.07;2.85;;;16.60;99.90;;;;;;4967958;28;20062;-80
2022/06/10 10:07:46;;;;;;;6.10;3.42;;;16.80;99.90;;;;;;4953038;28;20683;-80
2022/06/10 10:10:14;;;;;;;7.25;3.85;;;16.90;99.90;;;;;;4997790;28;20045;-82
2022/06/10 10:13:20;;;;;;;3.70;2.58;;;17.20;99.90;;;;;;5030169;28;20053;-83
2022/06/10 10:16:02;;;;;;;3.08;2.47;;;17.50;99.90;;;;;;5011493;28;20521;-82
2022/06/10 10:18:42;;;;;;;3.38;2.63;;;17.40;99.90;;;;;;5029662;28;20411;-83
2022/06/10 10:21:25;;;;;;;3.58;3.28;;;17.20;99.90;;;;;;5011940;28;20052;-83
2022/06/10 10:23:58;;;;;;;2.47;1.90;;;16.90;99.90;;;;;;5030184;28;20052;-83
2022/06/10 10:26:32;;;;;;;2.75;2.55;;;16.70;99.90;;;;;;5029117;28;20403;-83
2022/06/10 10:29:21;;;;;;;2.85;2.58;;;16.60;99.90;;;;;;5029277;28;20483;-82
2022/06/10 10:32:01;;;;;;;6.70;2.33;;;16.50;99.90;;;;;;5030253;28;20060;-77
2022/06/10 10:34:34;;;;;;;4.38;2.55;;;16.40;99.90;;;;;;5029516;28;20045;-77
2022/06/10 10:37:10;;;;;;;2.83;2.03;;;16.40;99.90;;;;;;5029422;28;20419;-77
2022/06/10 10:39:38;;;;;;;4.82;2.65;;;16.30;99.90;;;;;;5029183;28;20054;-77
2022/06/10 10:42:34;;;;;;;2.83;2.63;;;16.20;99.90;;;;;;5029037;28;20037;-77
2022/06/10 10:45:05;;;;;;;2.30;2.10;;;16.30;99.90;;;;;;5027371;28;20491;-77
2022/06/10 10:47:34;;;;;;;4.88;3.00;;;16.30;99.90;;;;;;5030060;28;20049;-77
2022/06/10 10:50:03;;;;;;;3.90;2.78;;;16.40;99.90;;;;;;5031540;28;20038;-77
2022/06/10 10:52:34;;;;;;;8.43;5.00;;;16.80;99.90;;;;;;5015897;28;20406;-77
2022/06/10 10:55:11;;;;;;;7.45;2.40;;;17.00;99.90;;;;;;5014968;28;20041;-77
2022/06/10 10:57:44;;;;;;;3.53;3.22;;;17.30;99.90;;;;;;5032282;28;20041;-77
2022/06/10 11:00:15;;;;;;;2.83;2.42;;;17.50;99.90;;;;;;5033463;28;20045;-77
2022/06/10 11:02:51;;;;;;;2.08;1.85;;;17.70;99.90;;;;;;5032837;28;20049;-77
2022/06/10 11:05:23;;;;;;;6.57;2.97;;;17.80;99.90;;;;;;5032843;28;20049;-77
2022/06/10 11:08:13;;;;;;;5.63;3.13;;;18.00;99.90;;;;;;5032938;28;20049;-77
2022/06/10 11:10:54;;;;;;;3.78;2.05;;;18.00;99.90;;;;;;5032034;28;20049;-77
2022/06/10 11:13:41;;;;;;;2.25;2.05;;;17.90;99.90;;;;;;5032817;28;20049;-77
2022/06/10 11:16:28;;;;;;;5.38;3.10;;;17.80;99.90;;;;;;5029292;28;20053;-76
2022/06/10 11:19:17;;;;;;;4.95;2.00;;;17.90;99.90;;;;;;5012489;28;20050;-77
2022/06/10 11:21:55;;;;;;;4.80;3.78;;;18.00;99.90;;;;;;5012703;28;20573;-76
2022/06/10 11:24:37;;;;;;;2.58;2.38;;;17.80;99.90;;;;;;5001665;28;20045;-77
2022/06/10 11:27:27;;;;;;;2.28;1.80;;;17.60;99.90;;;;;;5032125;28;20049;-78
2022/06/10 11:30:00;;;;;;;3.03;2.83;;;17.40;99.90;;;;;;5032183;28;20041;-77
2022/06/10 11:32:39;;;;;;;2.83;2.58;;;17.20;99.90;;;;;;5032892;28;20415;-78
2022/06/10 11:35:33;;;;;;;6.95;2.28;;;17.10;99.90;;;;;;5032046;28;20053;-77
2022/06/10 11:38:18;;;;;;;2.40;2.08;;;17.10;99.90;;;;;;5031771;28;20511;-77
2022/06/10 11:41:20;;;;;;;2.50;2.30;;;17.40;99.90;;;;;;5031564;28;20059;-77
2022/06/10 11:43:57;;;;;;;6.82;3.03;;;17.70;99.90;;;;;;5032749;28;20053;-77
2022/06/10 11:46:32;;;;;;;2.42;2.15;;;17.90;99.90;;;;;;5014195;28;20045;-78
2022/06/10 11:49:40;;;;;;;2.95;2.67;;;18.10;99.90;;;;;;4990495;28;20049;-77
2022/06/10 11:52:29;;;;;;;3.35;2.47;;;18.20;99.90;;;;;;4983667;28;20054;-77
2022/06/10 11:55:13;;;;;;;2.08;1.75;;;18.20;99.90;;;;;;4993992;28;20060;-77
2022/06/10 12:00:44;;;;;;;2.35;2.15;;;18.20;99.90;;;;;;5011741;28;20556;-77
2022/06/10 12:03:27;;;;;;;4.22;2.65;;;18.50;99.90;;;;;;5011431;28;20050;-77
2022/06/10 12:06:22;;;;;;;3.53;2.33;;;18.80;99.90;;;;;;5011899;28;20072;-77
2022/06/10 12:09:09;;;;;;;1.92;1.83;;;18.60;99.90;;;;;;5011804;28;20057;-77
2022/06/10 12:11:43;;;;;;;5.07;3.00;;;18.30;99.90;;;;;;5011713;28;20053;-77
2022/06/10 12:14:31;;;;;;;1.77;1.67;;;18.00;99.90;;;;;;5011766;28;20050;-77
2022/06/10 12:17:04;;;;;;;3.13;2.28;;;17.80;99.90;;;;;;5022433;28;20053;-77
2022/06/10 12:19:44;;;;;;;2.90;2.60;;;17.70;99.90;;;;;;5031776;28;20045;-78
2022/06/10 12:22:13;;;;;;;2.17;1.98;;;17.50;99.90;;;;;;5031540;28;20042;-77
2022/06/10 12:24:44;;;;;;;3.90;2.58;;;17.40;99.90;;;;;;5017470;28;20044;-77
2022/06/10 12:27:23;;;;;;;4.35;2.67;;;17.40;99.90;;;;;;5050729;28;20060;-77
2022/06/10 12:30:02;;;;;;;3.85;2.80;;;17.30;99.90;;;;;;5051107;28;20053;-77
2022/06/10 12:32:48;;;;;;;2.88;2.60;;;17.20;99.90;;;;;;5051748;28;20451;-77
2022/06/10 12:35:25;;;;;;;2.25;2.05;;;17.20;99.90;;;;;;5050625;28;20055;-77
2022/06/10 12:38:10;;;;;;;2.45;1.95;;;17.10;99.90;;;;;;5045393;28;20037;-77
2022/06/10 12:40:59;;;;;;;4.63;2.53;;;17.20;99.90;;;;;;5030718;28;20060;-77
2022/06/10 12:43:35;;;;;;;2.78;1.60;;;17.20;99.90;;;;;;5029124;28;20045;-77
2022/06/10 12:46:11;;;;;;;3.78;2.60;;;17.30;99.90;;;;;;5031258;28;20037;-77
2022/06/10 12:48:46;;;;;;;2.15;1.95;;;17.60;99.90;;;;;;5030873;28;20060;-77
2022/06/10 12:51:38;;;;;;;2.30;2.08;;;18.30;99.90;;;;;;5030500;28;20049;-77
2022/06/10 12:54:25;;;;;;;3.72;3.42;;;18.60;99.90;;;;;;5031218;28;20499;-77
2022/06/10 12:57:33;;;;;;;5.28;2.38;;;18.60;99.90;;;;;;5030176;28;20479;-77
2022/06/10 13:00:22;;;;;;;5.63;3.05;;;18.40;99.90;;;;;;5013341;28;20498;-77
2022/06/10 13:03:16;;;;;;;3.35;2.63;;;18.20;99.90;;;;;;5030809;28;20045;-77
2022/06/10 13:05:48;;;;;;;3.70;3.03;;;18.10;99.90;;;;;;5029409;28;20041;-77
2022/06/10 13:08:30;;;;;;;6.20;3.13;;;17.90;99.90;;;;;;5030851;28;20057;-77
2022/06/10 13:10:58;;;;;;;3.00;2.63;;;17.90;99.90;;;;;;5029706;28;20049;-77
2022/06/10 13:13:26;;;;;;;3.40;2.70;;;18.00;99.90;;;;;;5030471;28;20042;-77
2022/06/10 13:16:16;;;;;;;4.72;2.38;;;18.10;99.90;;;;;;5030648;28;20049;-77
2022/06/10 13:18:56;;;;;;;4.65;2.65;;;18.30;99.90;;;;;;5012340;28;20049;-77
2022/06/10 13:21:33;;;;;;;3.95;2.42;;;18.50;99.90;;;;;;5030113;28;20041;-77
2022/06/10 13:24:02;;;;;;;4.30;2.50;;;18.70;99.90;;;;;;5033816;28;20052;-77
2022/06/10 13:26:33;;;;;;;3.78;3.30;;;18.90;99.90;;;;;;5049148;28;20045;-77
2022/06/10 13:29:21;;;;;;;2.45;1.95;;;18.90;99.90;;;;;;5049889;28;20064;-78
2022/06/10 13:31:52;;;;;;;1.80;1.70;;;19.10;99.90;;;;;;5032777;28;20403;-77
2022/06/10 13:34:27;;;;;;;2.95;1.80;;;19.10;99.90;;;;;;5050134;28;20052;-78
2022/06/10 13:36:59;;;;;;;2.20;1.98;;;19.00;99.90;;;;;;5049957;28;20055;-78
2022/06/10 13:39:37;;;;;;;2.67;2.47;;;18.90;99.90;;;;;;5050511;28;20049;-78
2022/06/10 13:42:06;;;;;;;2.83;2.30;;;19.00;99.90;;;;;;5049505;28;20045;-78
2022/06/10 13:44:46;;;;;;;3.17;2.25;;;19.00;99.90;;;;;;5033060;28;20036;-78
2022/06/10 13:47:22;;;;;;;2.95;1.73;;;18.90;99.90;;;;;;5049651;28;20491;-77
2022/06/10 13:53:00;;;;;;;2.90;2.60;;;19.30;99.90;;;;;;5030666;28;20037;-77
2022/06/10 13:55:38;;;;;;;4.00;2.90;;;19.50;99.90;;;;;;4996186;28;20045;-78
2022/06/10 13:58:18;;;;;;;3.00;2.70;;;19.70;99.90;;;;;;5029863;28;20057;-77